Osceola, Arkansas
Current Conditions -  °F | °C
As of 7:53 AM on Thursday 29 Jan 2015 (Local Time) from KHKA Reporting Station
Clear Clear  
Wind Chill: 52°   Ceiling: Unl
Heat Index: 52°   Visibility: 10mi
Dew Point: 43°   Wind: 16mph
Humidity: 71%   Direction: 220°SW
Pressure: 30.01"   Gusts: 22mph
Location:  35.71°N, 89.97°W
Report Text: KHKA 291353Z AUTO 22014G19KT 10SM CLR 11/06 A3001 RMK AO2 SLP164 T01110061
Loading
Personal Weather Stations






























Interactive Weather Map New forecast layout! Learn more

10-Day Weather Forecast

Advertisements
Track Severe Weather on mobile